sensor_id;sensor_type;location;lat;lon;timestamp;P1;durP1;ratioP1;P2;durP2;ratioP2
74259;SDS011;62630;55.874;37.516;2022-08-07T00:00:03;19.42;;;7.80;;
74259;SDS011;62630;55.874;37.516;2022-08-07T00:02:30;12.50;;;7.35;;
74259;SDS011;62630;55.874;37.516;2022-08-07T00:04:55;12.85;;;7.30;;
74259;SDS011;62630;55.874;37.516;2022-08-07T00:07:21;11.65;;;7.05;;
74259;SDS011;62630;55.874;37.516;2022-08-07T00:09:46;10.48;;;6.30;;
74259;SDS011;62630;55.874;37.516;2022-08-07T00:12:12;14.23;;;6.60;;
74259;SDS011;62630;55.874;37.516;2022-08-07T00:14:37;12.30;;;7.28;;
74259;SDS011;62630;55.874;37.516;2022-08-07T00:17:03;8.13;;;6.95;;
74259;SDS011;62630;55.874;37.516;2022-08-07T00:19:29;12.45;;;6.25;;
74259;SDS011;62630;55.874;37.516;2022-08-07T00:21:56;12.73;;;6.80;;
74259;SDS011;62630;55.874;37.516;2022-08-07T00:24:21;13.73;;;6.95;;
74259;SDS011;62630;55.874;37.516;2022-08-07T00:26:47;11.35;;;6.40;;
74259;SDS011;62630;55.874;37.516;2022-08-07T00:29:12;12.35;;;6.97;;
74259;SDS011;62630;55.874;37.516;2022-08-07T00:31:39;9.80;;;5.88;;
74259;SDS011;62630;55.874;37.516;2022-08-07T00:34:04;13.15;;;6.53;;
74259;SDS011;62630;55.874;37.516;2022-08-07T00:36:30;10.52;;;6.95;;
74259;SDS011;62630;55.874;37.516;2022-08-07T00:38:55;8.93;;;6.25;;
74259;SDS011;62630;55.874;37.516;2022-08-07T00:41:30;15.57;;;6.05;;
74259;SDS011;62630;55.874;37.516;2022-08-07T00:43:56;11.13;;;6.45;;
74259;SDS011;62630;55.874;37.516;2022-08-07T00:46:22;14.10;;;6.38;;
74259;SDS011;62630;55.874;37.516;2022-08-07T00:48:47;10.52;;;6.75;;
74259;SDS011;62630;55.874;37.516;2022-08-07T00:51:13;11.82;;;5.97;;
74259;SDS011;62630;55.874;37.516;2022-08-07T00:53:39;12.18;;;7.25;;
74259;SDS011;62630;55.874;37.516;2022-08-07T00:56:04;13.32;;;7.15;;
74259;SDS011;62630;55.874;37.516;2022-08-07T00:58:30;8.95;;;6.07;;
74259;SDS011;62630;55.874;37.516;2022-08-07T01:00:56;11.40;;;6.40;;
74259;SDS011;62630;55.874;37.516;2022-08-07T01:03:22;11.63;;;5.93;;
74259;SDS011;62630;55.874;37.516;2022-08-07T01:05:48;13.32;;;6.22;;
74259;SDS011;62630;55.874;37.516;2022-08-07T01:08:14;16.10;;;6.78;;
74259;SDS011;62630;55.874;37.516;2022-08-07T01:10:40;9.80;;;6.00;;
74259;SDS011;62630;55.874;37.516;2022-08-07T01:15:32;10.10;;;5.68;;
74259;SDS011;62630;55.874;37.516;2022-08-07T01:17:58;12.05;;;6.25;;
74259;SDS011;62630;55.874;37.516;2022-08-07T01:20:25;13.98;;;7.20;;
74259;SDS011;62630;55.874;37.516;2022-08-07T01:22:56;8.40;;;6.15;;
74259;SDS011;62630;55.874;37.516;2022-08-07T01:27:49;14.65;;;7.03;;
74259;SDS011;62630;55.874;37.516;2022-08-07T01:30:14;16.08;;;7.47;;
74259;SDS011;62630;55.874;37.516;2022-08-07T01:32:41;19.35;;;7.63;;
74259;SDS011;62630;55.874;37.516;2022-08-07T01:35:07;12.05;;;7.47;;
74259;SDS011;62630;55.874;37.516;2022-08-07T01:37:32;16.85;;;7.60;;
74259;SDS011;62630;55.874;37.516;2022-08-07T01:39:59;15.30;;;7.57;;
74259;SDS011;62630;55.874;37.516;2022-08-07T01:44:51;21.30;;;7.57;;
74259;SDS011;62630;55.874;37.516;2022-08-07T01:47:17;16.17;;;8.45;;
74259;SDS011;62630;55.874;37.516;2022-08-07T01:49:44;18.77;;;8.15;;
74259;SDS011;62630;55.874;37.516;2022-08-07T01:52:09;18.95;;;8.45;;
74259;SDS011;62630;55.874;37.516;2022-08-07T01:54:38;15.77;;;8.10;;
74259;SDS011;62630;55.874;37.516;2022-08-07T01:57:07;15.93;;;7.38;;
74259;SDS011;62630;55.874;37.516;2022-08-07T01:59:39;20.33;;;8.15;;
74259;SDS011;62630;55.874;37.516;2022-08-07T02:05:42;20.42;;;7.00;;
74259;SDS011;62630;55.874;37.516;2022-08-07T02:08:15;14.02;;;6.82;;
74259;SDS011;62630;55.874;37.516;2022-08-07T02:10:43;12.75;;;7.25;;
74259;SDS011;62630;55.874;37.516;2022-08-07T02:13:12;13.55;;;7.47;;
74259;SDS011;62630;55.874;37.516;2022-08-07T02:15:39;20.20;;;6.85;;
74259;SDS011;62630;55.874;37.516;2022-08-07T02:18:09;13.48;;;6.72;;
74259;SDS011;62630;55.874;37.516;2022-08-07T02:20:36;17.33;;;7.05;;
74259;SDS011;62630;55.874;37.516;2022-08-07T02:23:04;10.07;;;6.45;;
74259;SDS011;62630;55.874;37.516;2022-08-07T02:25:32;10.68;;;6.75;;
74259;SDS011;62630;55.874;37.516;2022-08-07T02:28:00;11.05;;;7.10;;
74259;SDS011;62630;55.874;37.516;2022-08-07T02:30:27;17.77;;;6.82;;
74259;SDS011;62630;55.874;37.516;2022-08-07T02:32:54;15.52;;;6.15;;
74259;SDS011;62630;55.874;37.516;2022-08-07T02:35:22;10.32;;;6.40;;
74259;SDS011;62630;55.874;37.516;2022-08-07T02:37:48;12.80;;;6.15;;
74259;SDS011;62630;55.874;37.516;2022-08-07T02:40:16;11.68;;;6.40;;
74259;SDS011;62630;55.874;37.516;2022-08-07T02:42:42;13.52;;;6.85;;
74259;SDS011;62630;55.874;37.516;2022-08-07T02:45:09;15.48;;;6.38;;
74259;SDS011;62630;55.874;37.516;2022-08-07T02:47:37;14.07;;;5.95;;
74259;SDS011;62630;55.874;37.516;2022-08-07T02:50:03;10.23;;;5.68;;
74259;SDS011;62630;55.874;37.516;2022-08-07T02:52:52;11.45;;;6.45;;
74259;SDS011;62630;55.874;37.516;2022-08-07T02:55:20;9.85;;;6.13;;
74259;SDS011;62630;55.874;37.516;2022-08-07T02:57:47;13.98;;;6.50;;
74259;SDS011;62630;55.874;37.516;2022-08-07T03:00:15;15.65;;;5.82;;
74259;SDS011;62630;55.874;37.516;2022-08-07T03:02:41;11.82;;;6.00;;
74259;SDS011;62630;55.874;37.516;2022-08-07T03:05:10;11.27;;;6.18;;
74259;SDS011;62630;55.874;37.516;2022-08-07T03:07:37;10.40;;;6.10;;
74259;SDS011;62630;55.874;37.516;2022-08-07T03:10:04;8.95;;;5.95;;
74259;SDS011;62630;55.874;37.516;2022-08-07T03:15:00;12.73;;;5.93;;
74259;SDS011;62630;55.874;37.516;2022-08-07T03:17:27;14.70;;;6.10;;
74259;SDS011;62630;55.874;37.516;2022-08-07T03:19:54;11.85;;;6.28;;
74259;SDS011;62630;55.874;37.516;2022-08-07T03:22:20;12.85;;;5.82;;
74259;SDS011;62630;55.874;37.516;2022-08-07T03:27:13;13.23;;;5.82;;
74259;SDS011;62630;55.874;37.516;2022-08-07T03:29:40;16.85;;;5.90;;
74259;SDS011;62630;55.874;37.516;2022-08-07T03:32:10;21.45;;;5.40;;
74259;SDS011;62630;55.874;37.516;2022-08-07T03:34:37;11.48;;;5.75;;
74259;SDS011;62630;55.874;37.516;2022-08-07T03:37:03;8.93;;;5.50;;
74259;SDS011;62630;55.874;37.516;2022-08-07T03:39:33;14.07;;;5.80;;
74259;SDS011;62630;55.874;37.516;2022-08-07T03:42:02;15.80;;;5.45;;
74259;SDS011;62630;55.874;37.516;2022-08-07T03:44:29;15.52;;;5.75;;
74259;SDS011;62630;55.874;37.516;2022-08-07T03:46:56;13.18;;;5.80;;
74259;SDS011;62630;55.874;37.516;2022-08-07T03:49:22;7.38;;;5.03;;
74259;SDS011;62630;55.874;37.516;2022-08-07T03:51:47;12.23;;;5.30;;
74259;SDS011;62630;55.874;37.516;2022-08-07T03:54:15;12.27;;;5.22;;
74259;SDS011;62630;55.874;37.516;2022-08-07T03:56:40;10.60;;;5.28;;
74259;SDS011;62630;55.874;37.516;2022-08-07T04:01:36;11.32;;;4.95;;
74259;SDS011;62630;55.874;37.516;2022-08-07T04:04:06;9.70;;;5.13;;
74259;SDS011;62630;55.874;37.516;2022-08-07T04:06:31;11.02;;;5.47;;
74259;SDS011;62630;55.874;37.516;2022-08-07T04:08:58;8.90;;;4.85;;
74259;SDS011;62630;55.874;37.516;2022-08-07T04:11:25;12.02;;;4.47;;
74259;SDS011;62630;55.874;37.516;2022-08-07T04:13:51;10.73;;;4.53;;
74259;SDS011;62630;55.874;37.516;2022-08-07T04:16:19;7.35;;;5.22;;
74259;SDS011;62630;55.874;37.516;2022-08-07T04:18:45;12.93;;;5.10;;
74259;SDS011;62630;55.874;37.516;2022-08-07T04:21:11;13.95;;;4.22;;
74259;SDS011;62630;55.874;37.516;2022-08-07T04:23:41;8.73;;;4.65;;
74259;SDS011;62630;55.874;37.516;2022-08-07T04:26:07;9.60;;;5.10;;
74259;SDS011;62630;55.874;37.516;2022-08-07T04:28:33;9.50;;;4.97;;
74259;SDS011;62630;55.874;37.516;2022-08-07T04:30:58;9.18;;;5.18;;
74259;SDS011;62630;55.874;37.516;2022-08-07T04:33:24;11.18;;;4.88;;
74259;SDS011;62630;55.874;37.516;2022-08-07T04:35:51;9.07;;;5.10;;
74259;SDS011;62630;55.874;37.516;2022-08-07T04:38:17;7.22;;;4.63;;
74259;SDS011;62630;55.874;37.516;2022-08-07T04:40:44;11.18;;;4.93;;
74259;SDS011;62630;55.874;37.516;2022-08-07T04:43:11;10.63;;;4.40;;
74259;SDS011;62630;55.874;37.516;2022-08-07T04:45:46;10.05;;;4.88;;
74259;SDS011;62630;55.874;37.516;2022-08-07T04:48:23;6.85;;;4.50;;
74259;SDS011;62630;55.874;37.516;2022-08-07T04:51:25;7.93;;;4.68;;
74259;SDS011;62630;55.874;37.516;2022-08-07T04:54:07;8.13;;;4.90;;
74259;SDS011;62630;55.874;37.516;2022-08-07T04:56:46;7.40;;;4.88;;
74259;SDS011;62630;55.874;37.516;2022-08-07T04:59:20;11.40;;;5.18;;
74259;SDS011;62630;55.874;37.516;2022-08-07T05:02:08;6.20;;;4.97;;
74259;SDS011;62630;55.874;37.516;2022-08-07T05:10:16;12.35;;;4.78;;
74259;SDS011;62630;55.874;37.516;2022-08-07T05:15:24;8.90;;;4.80;;
74259;SDS011;62630;55.874;37.516;2022-08-07T05:17:58;14.15;;;4.97;;
74259;SDS011;62630;55.874;37.516;2022-08-07T05:20:29;13.27;;;5.20;;
74259;SDS011;62630;55.874;37.516;2022-08-07T05:23:07;11.68;;;4.75;;
74259;SDS011;62630;55.874;37.516;2022-08-07T05:25:38;5.15;;;4.45;;
74259;SDS011;62630;55.874;37.516;2022-08-07T05:28:06;11.68;;;4.90;;
74259;SDS011;62630;55.874;37.516;2022-08-07T05:30:33;6.80;;;4.38;;
74259;SDS011;62630;55.874;37.516;2022-08-07T05:33:01;7.40;;;4.57;;
74259;SDS011;62630;55.874;37.516;2022-08-07T05:35:32;8.35;;;4.45;;
74259;SDS011;62630;55.874;37.516;2022-08-07T05:37:59;8.73;;;4.85;;
74259;SDS011;62630;55.874;37.516;2022-08-07T05:40:27;12.77;;;4.68;;
74259;SDS011;62630;55.874;37.516;2022-08-07T05:42:53;7.57;;;4.90;;
74259;SDS011;62630;55.874;37.516;2022-08-07T05:45:19;11.65;;;4.85;;
74259;SDS011;62630;55.874;37.516;2022-08-07T05:47:46;13.45;;;5.55;;
74259;SDS011;62630;55.874;37.516;2022-08-07T05:50:11;15.05;;;4.63;;
74259;SDS011;62630;55.874;37.516;2022-08-07T05:52:38;7.70;;;4.85;;
74259;SDS011;62630;55.874;37.516;2022-08-07T05:55:04;11.90;;;5.13;;
74259;SDS011;62630;55.874;37.516;2022-08-07T05:57:32;13.02;;;4.30;;
74259;SDS011;62630;55.874;37.516;2022-08-07T05:59:59;11.07;;;5.07;;
74259;SDS011;62630;55.874;37.516;2022-08-07T06:02:26;12.38;;;4.68;;
74259;SDS011;62630;55.874;37.516;2022-08-07T06:04:54;8.13;;;5.03;;
74259;SDS011;62630;55.874;37.516;2022-08-07T06:07:23;7.72;;;4.38;;
74259;SDS011;62630;55.874;37.516;2022-08-07T06:09:49;9.82;;;4.85;;
74259;SDS011;62630;55.874;37.516;2022-08-07T06:12:15;9.05;;;4.95;;
74259;SDS011;62630;55.874;37.516;2022-08-07T06:14:41;10.48;;;5.00;;
74259;SDS011;62630;55.874;37.516;2022-08-07T06:17:07;14.50;;;5.03;;
74259;SDS011;62630;55.874;37.516;2022-08-07T06:21:59;12.02;;;5.30;;
74259;SDS011;62630;55.874;37.516;2022-08-07T06:24:26;6.68;;;4.68;;
74259;SDS011;62630;55.874;37.516;2022-08-07T06:26:51;8.40;;;4.57;;
74259;SDS011;62630;55.874;37.516;2022-08-07T06:29:17;8.73;;;5.18;;
74259;SDS011;62630;55.874;37.516;2022-08-07T06:31:43;11.30;;;6.22;;
74259;SDS011;62630;55.874;37.516;2022-08-07T06:34:08;13.95;;;6.47;;
74259;SDS011;62630;55.874;37.516;2022-08-07T06:36:34;10.20;;;5.45;;
74259;SDS011;62630;55.874;37.516;2022-08-07T06:38:59;15.02;;;5.72;;
74259;SDS011;62630;55.874;37.516;2022-08-07T06:44:04;11.10;;;5.28;;
74259;SDS011;62630;55.874;37.516;2022-08-07T06:46:30;12.75;;;5.63;;
74259;SDS011;62630;55.874;37.516;2022-08-07T06:48:56;10.40;;;5.53;;
74259;SDS011;62630;55.874;37.516;2022-08-07T06:51:22;13.68;;;5.22;;
74259;SDS011;62630;55.874;37.516;2022-08-07T06:53:53;9.63;;;5.25;;
74259;SDS011;62630;55.874;37.516;2022-08-07T06:56:21;10.98;;;5.97;;
74259;SDS011;62630;55.874;37.516;2022-08-07T06:59:06;13.77;;;5.10;;
74259;SDS011;62630;55.874;37.516;2022-08-07T07:01:42;14.15;;;5.07;;
74259;SDS011;62630;55.874;37.516;2022-08-07T07:04:09;10.70;;;4.65;;
74259;SDS011;62630;55.874;37.516;2022-08-07T07:06:34;11.32;;;5.70;;
74259;SDS011;62630;55.874;37.516;2022-08-07T07:14:50;12.18;;;5.55;;
74259;SDS011;62630;55.874;37.516;2022-08-07T07:20:33;11.23;;;5.13;;
74259;SDS011;62630;55.874;37.516;2022-08-07T07:23:28;13.20;;;5.65;;
74259;SDS011;62630;55.874;37.516;2022-08-07T07:25:59;8.63;;;5.35;;
74259;SDS011;62630;55.874;37.516;2022-08-07T07:31:14;12.23;;;4.32;;
74259;SDS011;62630;55.874;37.516;2022-08-07T07:33:45;10.40;;;4.55;;
74259;SDS011;62630;55.874;37.516;2022-08-07T07:36:13;8.85;;;4.85;;
74259;SDS011;62630;55.874;37.516;2022-08-07T07:38:40;11.40;;;4.82;;
74259;SDS011;62630;55.874;37.516;2022-08-07T07:41:06;14.15;;;4.65;;
74259;SDS011;62630;55.874;37.516;2022-08-07T07:43:34;10.18;;;5.40;;
74259;SDS011;62630;55.874;37.516;2022-08-07T07:46:03;10.13;;;4.53;;
74259;SDS011;62630;55.874;37.516;2022-08-07T07:48:31;10.80;;;5.18;;
74259;SDS011;62630;55.874;37.516;2022-08-07T07:50:58;11.93;;;5.25;;
74259;SDS011;62630;55.874;37.516;2022-08-07T07:53:25;12.07;;;5.10;;
74259;SDS011;62630;55.874;37.516;2022-08-07T07:55:55;11.25;;;4.68;;
74259;SDS011;62630;55.874;37.516;2022-08-07T07:58:31;14.35;;;4.65;;
74259;SDS011;62630;55.874;37.516;2022-08-07T08:00:59;13.93;;;4.60;;
74259;SDS011;62630;55.874;37.516;2022-08-07T08:03:25;7.68;;;4.85;;
74259;SDS011;62630;55.874;37.516;2022-08-07T08:05:54;14.00;;;5.05;;
74259;SDS011;62630;55.874;37.516;2022-08-07T08:08:21;12.95;;;5.82;;
74259;SDS011;62630;55.874;37.516;2022-08-07T08:10:48;14.63;;;5.47;;
74259;SDS011;62630;55.874;37.516;2022-08-07T08:13:14;9.73;;;4.90;;
74259;SDS011;62630;55.874;37.516;2022-08-07T08:15:40;9.50;;;4.78;;
74259;SDS011;62630;55.874;37.516;2022-08-07T08:18:08;12.40;;;4.80;;
74259;SDS011;62630;55.874;37.516;2022-08-07T08:20:37;11.95;;;4.70;;
74259;SDS011;62630;55.874;37.516;2022-08-07T08:23:05;7.30;;;5.00;;
74259;SDS011;62630;55.874;37.516;2022-08-07T08:25:51;10.90;;;5.13;;
74259;SDS011;62630;55.874;37.516;2022-08-07T08:28:37;7.45;;;4.70;;
74259;SDS011;62630;55.874;37.516;2022-08-07T08:31:07;9.88;;;4.88;;
74259;SDS011;62630;55.874;37.516;2022-08-07T08:33:35;7.70;;;4.82;;
74259;SDS011;62630;55.874;37.516;2022-08-07T08:36:03;11.43;;;5.05;;
74259;SDS011;62630;55.874;37.516;2022-08-07T08:38:31;9.32;;;4.93;;
74259;SDS011;62630;55.874;37.516;2022-08-07T08:41:02;8.10;;;5.05;;
74259;SDS011;62630;55.874;37.516;2022-08-07T08:52:07;11.95;;;4.55;;
74259;SDS011;62630;55.874;37.516;2022-08-07T08:54:58;12.35;;;4.75;;
74259;SDS011;62630;55.874;37.516;2022-08-07T09:00:45;8.95;;;4.88;;
74259;SDS011;62630;55.874;37.516;2022-08-07T09:03:27;10.32;;;4.78;;
74259;SDS011;62630;55.874;37.516;2022-08-07T09:06:07;9.90;;;4.63;;
74259;SDS011;62630;55.874;37.516;2022-08-07T09:11:18;14.45;;;5.13;;
74259;SDS011;62630;55.874;37.516;2022-08-07T09:14:05;9.25;;;4.25;;
74259;SDS011;62630;55.874;37.516;2022-08-07T09:22:20;10.25;;;4.47;;
74259;SDS011;62630;55.874;37.516;2022-08-07T09:25:16;8.30;;;4.50;;
74259;SDS011;62630;55.874;37.516;2022-08-07T09:30:16;9.48;;;4.60;;
74259;SDS011;62630;55.874;37.516;2022-08-07T09:38:18;5.95;;;3.70;;
74259;SDS011;62630;55.874;37.516;2022-08-07T09:55:36;9.25;;;4.43;;
74259;SDS011;62630;55.874;37.516;2022-08-07T09:58:23;9.93;;;3.92;;
74259;SDS011;62630;55.874;37.516;2022-08-07T10:09:38;7.20;;;3.70;;
74259;SDS011;62630;55.874;37.516;2022-08-07T10:15:24;5.72;;;3.63;;
74259;SDS011;62630;55.874;37.516;2022-08-07T10:34:07;11.52;;;4.10;;
74259;SDS011;62630;55.874;37.516;2022-08-07T10:47:55;5.53;;;3.78;;
74259;SDS011;62630;55.874;37.516;2022-08-07T10:50:52;8.98;;;3.80;;
74259;SDS011;62630;55.874;37.516;2022-08-07T10:58:50;10.13;;;4.10;;
74259;SDS011;62630;55.874;37.516;2022-08-07T11:04:23;11.32;;;4.22;;
74259;SDS011;62630;55.874;37.516;2022-08-07T11:07:08;10.18;;;4.35;;
74259;SDS011;62630;55.874;37.516;2022-08-07T11:09:48;8.88;;;4.20;;
74259;SDS011;62630;55.874;37.516;2022-08-07T11:12:26;6.03;;;3.92;;
74259;SDS011;62630;55.874;37.516;2022-08-07T11:15:10;6.05;;;3.55;;
74259;SDS011;62630;55.874;37.516;2022-08-07T11:17:41;18.58;;;4.20;;
74259;SDS011;62630;55.874;37.516;2022-08-07T11:20:34;8.25;;;4.18;;
74259;SDS011;62630;55.874;37.516;2022-08-07T11:23:02;7.50;;;3.90;;
74259;SDS011;62630;55.874;37.516;2022-08-07T11:25:53;6.60;;;4.22;;
74259;SDS011;62630;55.874;37.516;2022-08-07T11:28:50;11.18;;;4.13;;
74259;SDS011;62630;55.874;37.516;2022-08-07T11:31:37;7.95;;;3.97;;
74259;SDS011;62630;55.874;37.516;2022-08-07T11:34:15;11.40;;;3.25;;
74259;SDS011;62630;55.874;37.516;2022-08-07T11:39:23;10.70;;;4.43;;
74259;SDS011;62630;55.874;37.516;2022-08-07T11:44:55;10.57;;;4.72;;
74259;SDS011;62630;55.874;37.516;2022-08-07T11:50:35;10.13;;;4.30;;
74259;SDS011;62630;55.874;37.516;2022-08-07T12:05:25;7.20;;;4.20;;
74259;SDS011;62630;55.874;37.516;2022-08-07T12:08:51;7.40;;;3.70;;
74259;SDS011;62630;55.874;37.516;2022-08-07T12:14:19;11.50;;;4.55;;
74259;SDS011;62630;55.874;37.516;2022-08-07T12:17:09;6.70;;;4.10;;
74259;SDS011;62630;55.874;37.516;2022-08-07T12:19:44;8.43;;;3.83;;
74259;SDS011;62630;55.874;37.516;2022-08-07T12:25:16;7.80;;;3.90;;
74259;SDS011;62630;55.874;37.516;2022-08-07T12:28:10;7.28;;;3.45;;
74259;SDS011;62630;55.874;37.516;2022-08-07T12:30:42;7.18;;;3.22;;
74259;SDS011;62630;55.874;37.516;2022-08-07T12:33:13;4.65;;;3.60;;
74259;SDS011;62630;55.874;37.516;2022-08-07T12:35:49;5.53;;;3.78;;
74259;SDS011;62630;55.874;37.516;2022-08-07T12:38:19;5.25;;;3.15;;
74259;SDS011;62630;55.874;37.516;2022-08-07T12:40:47;4.28;;;2.95;;
74259;SDS011;62630;55.874;37.516;2022-08-07T12:43:26;7.43;;;3.30;;
74259;SDS011;62630;55.874;37.516;2022-08-07T12:46:03;4.47;;;2.83;;
74259;SDS011;62630;55.874;37.516;2022-08-07T12:48:50;4.57;;;3.03;;
74259;SDS011;62630;55.874;37.516;2022-08-07T12:51:32;3.80;;;2.83;;
74259;SDS011;62630;55.874;37.516;2022-08-07T12:54:14;4.85;;;2.88;;
74259;SDS011;62630;55.874;37.516;2022-08-07T13:01:25;5.15;;;2.67;;
74259;SDS011;62630;55.874;37.516;2022-08-07T13:09:02;4.93;;;2.60;;
74259;SDS011;62630;55.874;37.516;2022-08-07T13:11:56;3.45;;;2.72;;
74259;SDS011;62630;55.874;37.516;2022-08-07T13:20:19;4.20;;;2.47;;
74259;SDS011;62630;55.874;37.516;2022-08-07T13:23:06;6.38;;;2.83;;
74259;SDS011;62630;55.874;37.516;2022-08-07T13:25:42;2.83;;;2.10;;
74259;SDS011;62630;55.874;37.516;2022-08-07T13:28:17;4.03;;;2.50;;
74259;SDS011;62630;55.874;37.516;2022-08-07T13:31:00;4.00;;;2.47;;
74259;SDS011;62630;55.874;37.516;2022-08-07T13:33:47;6.40;;;2.30;;
74259;SDS011;62630;55.874;37.516;2022-08-07T13:36:22;4.35;;;2.83;;
74259;SDS011;62630;55.874;37.516;2022-08-07T13:43:48;2.38;;;2.17;;
74259;SDS011;62630;55.874;37.516;2022-08-07T13:46:15;3.72;;;2.33;;
74259;SDS011;62630;55.874;37.516;2022-08-07T13:48:47;5.22;;;2.22;;
74259;SDS011;62630;55.874;37.516;2022-08-07T13:51:17;3.20;;;2.33;;
74259;SDS011;62630;55.874;37.516;2022-08-07T13:53:48;2.20;;;2.00;;
74259;SDS011;62630;55.874;37.516;2022-08-07T13:56:21;6.05;;;2.40;;
74259;SDS011;62630;55.874;37.516;2022-08-07T13:58:49;2.10;;;1.90;;
74259;SDS011;62630;55.874;37.516;2022-08-07T14:01:26;4.28;;;2.30;;
74259;SDS011;62630;55.874;37.516;2022-08-07T14:03:55;2.53;;;2.00;;
74259;SDS011;62630;55.874;37.516;2022-08-07T14:06:22;2.63;;;2.30;;
74259;SDS011;62630;55.874;37.516;2022-08-07T14:08:55;3.88;;;2.10;;
74259;SDS011;62630;55.874;37.516;2022-08-07T14:11:22;2.65;;;1.95;;
74259;SDS011;62630;55.874;37.516;2022-08-07T14:14:15;4.82;;;2.25;;
74259;SDS011;62630;55.874;37.516;2022-08-07T14:16:58;5.97;;;2.45;;
74259;SDS011;62630;55.874;37.516;2022-08-07T14:22:44;4.78;;;2.17;;
74259;SDS011;62630;55.874;37.516;2022-08-07T14:25:23;2.22;;;2.03;;
74259;SDS011;62630;55.874;37.516;2022-08-07T14:28:06;2.95;;;1.80;;
74259;SDS011;62630;55.874;37.516;2022-08-07T14:30:48;4.07;;;2.40;;
74259;SDS011;62630;55.874;37.516;2022-08-07T14:33:15;3.80;;;2.40;;
74259;SDS011;62630;55.874;37.516;2022-08-07T14:35:41;2.88;;;2.30;;
74259;SDS011;62630;55.874;37.516;2022-08-07T14:38:08;2.42;;;2.15;;
74259;SDS011;62630;55.874;37.516;2022-08-07T14:40:37;2.72;;;2.45;;
74259;SDS011;62630;55.874;37.516;2022-08-07T14:43:26;4.35;;;2.30;;
74259;SDS011;62630;55.874;37.516;2022-08-07T14:45:58;2.38;;;2.00;;
74259;SDS011;62630;55.874;37.516;2022-08-07T14:48:28;3.67;;;2.25;;
74259;SDS011;62630;55.874;37.516;2022-08-07T14:50:59;2.38;;;2.03;;
74259;SDS011;62630;55.874;37.516;2022-08-07T14:53:29;3.17;;;2.30;;
74259;SDS011;62630;55.874;37.516;2022-08-07T14:55:57;4.80;;;2.20;;
74259;SDS011;62630;55.874;37.516;2022-08-07T14:58:30;2.85;;;2.08;;
74259;SDS011;62630;55.874;37.516;2022-08-07T15:00:59;3.80;;;2.17;;
74259;SDS011;62630;55.874;37.516;2022-08-07T15:03:27;3.10;;;2.50;;
74259;SDS011;62630;55.874;37.516;2022-08-07T15:05:54;3.15;;;2.40;;
74259;SDS011;62630;55.874;37.516;2022-08-07T15:08:28;3.35;;;2.30;;
74259;SDS011;62630;55.874;37.516;2022-08-07T15:11:10;2.50;;;2.10;;
74259;SDS011;62630;55.874;37.516;2022-08-07T15:14:14;4.57;;;2.53;;
74259;SDS011;62630;55.874;37.516;2022-08-07T15:16:56;5.38;;;2.80;;
74259;SDS011;62630;55.874;37.516;2022-08-07T15:19:32;4.63;;;2.42;;
74259;SDS011;62630;55.874;37.516;2022-08-07T15:22:01;4.00;;;2.35;;
74259;SDS011;62630;55.874;37.516;2022-08-07T15:24:30;4.15;;;2.33;;
74259;SDS011;62630;55.874;37.516;2022-08-07T15:30:08;4.70;;;2.60;;
74259;SDS011;62630;55.874;37.516;2022-08-07T15:32:46;4.60;;;2.45;;
74259;SDS011;62630;55.874;37.516;2022-08-07T15:35:15;5.40;;;2.72;;
74259;SDS011;62630;55.874;37.516;2022-08-07T15:37:47;4.32;;;2.72;;
74259;SDS011;62630;55.874;37.516;2022-08-07T15:40:19;5.60;;;2.80;;
74259;SDS011;62630;55.874;37.516;2022-08-07T15:42:51;2.70;;;2.15;;
74259;SDS011;62630;55.874;37.516;2022-08-07T15:48:07;4.68;;;2.40;;
74259;SDS011;62630;55.874;37.516;2022-08-07T15:50:42;2.28;;;2.08;;
74259;SDS011;62630;55.874;37.516;2022-08-07T15:53:23;2.78;;;2.17;;
74259;SDS011;62630;55.874;37.516;2022-08-07T15:55:56;4.43;;;2.22;;
74259;SDS011;62630;55.874;37.516;2022-08-07T15:59:03;3.70;;;2.28;;
74259;SDS011;62630;55.874;37.516;2022-08-07T16:01:37;2.92;;;2.08;;
74259;SDS011;62630;55.874;37.516;2022-08-07T16:04:09;3.25;;;2.08;;
74259;SDS011;62630;55.874;37.516;2022-08-07T16:06:42;5.03;;;2.25;;
74259;SDS011;62630;55.874;37.516;2022-08-07T16:09:28;4.22;;;2.30;;
74259;SDS011;62630;55.874;37.516;2022-08-07T16:18:02;3.47;;;2.00;;
74259;SDS011;62630;55.874;37.516;2022-08-07T16:21:10;2.70;;;2.30;;
74259;SDS011;62630;55.874;37.516;2022-08-07T16:23:43;2.63;;;2.20;;
74259;SDS011;62630;55.874;37.516;2022-08-07T16:28:51;5.90;;;2.78;;
74259;SDS011;62630;55.874;37.516;2022-08-07T16:31:24;7.20;;;2.72;;
74259;SDS011;62630;55.874;37.516;2022-08-07T16:33:56;7.20;;;2.85;;
74259;SDS011;62630;55.874;37.516;2022-08-07T16:39:31;3.42;;;2.63;;
74259;SDS011;62630;55.874;37.516;2022-08-07T16:48:03;7.43;;;2.60;;
74259;SDS011;62630;55.874;37.516;2022-08-07T16:53:28;6.57;;;2.45;;
74259;SDS011;62630;55.874;37.516;2022-08-07T16:56:02;5.22;;;3.08;;
74259;SDS011;62630;55.874;37.516;2022-08-07T17:06:54;9.93;;;3.33;;
74259;SDS011;62630;55.874;37.516;2022-08-07T17:09:29;7.78;;;3.30;;
74259;SDS011;62630;55.874;37.516;2022-08-07T17:12:08;19.67;;;3.45;;
74259;SDS011;62630;55.874;37.516;2022-08-07T17:14:52;5.28;;;3.30;;
74259;SDS011;62630;55.874;37.516;2022-08-07T17:17:29;9.20;;;3.58;;
74259;SDS011;62630;55.874;37.516;2022-08-07T17:20:28;5.07;;;3.17;;
74259;SDS011;62630;55.874;37.516;2022-08-07T17:31:48;3.53;;;2.83;;
74259;SDS011;62630;55.874;37.516;2022-08-07T17:34:33;7.18;;;3.20;;
74259;SDS011;62630;55.874;37.516;2022-08-07T17:37:03;11.13;;;3.63;;
74259;SDS011;62630;55.874;37.516;2022-08-07T17:42:32;6.85;;;3.40;;
74259;SDS011;62630;55.874;37.516;2022-08-07T17:45:22;7.38;;;3.42;;
74259;SDS011;62630;55.874;37.516;2022-08-07T17:56:21;19.58;;;4.40;;
74259;SDS011;62630;55.874;37.516;2022-08-07T17:59:12;7.25;;;4.70;;
74259;SDS011;62630;55.874;37.516;2022-08-07T18:01:54;5.82;;;3.97;;
74259;SDS011;62630;55.874;37.516;2022-08-07T18:13:02;8.07;;;4.05;;
74259;SDS011;62630;55.874;37.516;2022-08-07T18:18:15;6.63;;;4.00;;
74259;SDS011;62630;55.874;37.516;2022-08-07T18:20:59;4.97;;;3.50;;
74259;SDS011;62630;55.874;37.516;2022-08-07T18:23:36;5.18;;;3.58;;
74259;SDS011;62630;55.874;37.516;2022-08-07T18:26:24;5.43;;;3.50;;
74259;SDS011;62630;55.874;37.516;2022-08-07T18:29:10;4.78;;;3.65;;
74259;SDS011;62630;55.874;37.516;2022-08-07T18:31:54;6.07;;;3.30;;
74259;SDS011;62630;55.874;37.516;2022-08-07T18:34:52;6.28;;;4.00;;
74259;SDS011;62630;55.874;37.516;2022-08-07T18:43:11;3.15;;;2.72;;
74259;SDS011;62630;55.874;37.516;2022-08-07T18:45:56;5.38;;;3.25;;
74259;SDS011;62630;55.874;37.516;2022-08-07T18:48:31;5.03;;;3.25;;
74259;SDS011;62630;55.874;37.516;2022-08-07T18:51:13;5.05;;;3.47;;
74259;SDS011;62630;55.874;37.516;2022-08-07T18:56:48;5.93;;;4.45;;
74259;SDS011;62630;55.874;37.516;2022-08-07T19:00:05;7.85;;;4.00;;
74259;SDS011;62630;55.874;37.516;2022-08-07T19:02:22;6.78;;;4.22;;
74259;SDS011;62630;55.874;37.516;2022-08-07T19:05:01;6.43;;;4.32;;
74259;SDS011;62630;55.874;37.516;2022-08-07T19:07:34;6.10;;;4.13;;
74259;SDS011;62630;55.874;37.516;2022-08-07T19:10:11;5.63;;;4.32;;
74259;SDS011;62630;55.874;37.516;2022-08-07T19:12:50;6.53;;;4.57;;
74259;SDS011;62630;55.874;37.516;2022-08-07T19:15:18;5.75;;;4.32;;
74259;SDS011;62630;55.874;37.516;2022-08-07T19:21:09;11.63;;;5.55;;